Time;durP1;ratioP1;P1;durP2;ratioP2;P2;SDS_P1;SDS_P2;PMS_P1;PMS_P2;Temp;Humidity;BMP_temperature;BMP_pressure;BME280_temperature;BME280_humidity;BME280_pressure;Samples;Min_cycle;Max_cycle;Signal;HPM_P1;HPM_P2
2021/12/24 00:00:17;;;;;;;176.55;43.35;;;6.00;99.90;;;;;;4959680;28;20373;-92
2021/12/24 00:02:43;;;;;;;192.00;44.80;;;5.80;99.90;;;;;;5005470;28;20039;-93
2021/12/24 00:05:09;;;;;;;172.52;44.55;;;5.90;99.90;;;;;;4958552;28;20174;-92
2021/12/24 00:07:35;;;;;;;176.77;41.33;;;5.30;99.90;;;;;;4940902;28;20503;-93
2021/12/24 00:10:01;;;;;;;171.45;42.42;;;5.40;99.90;;;;;;4991392;28;20132;-92
2021/12/24 00:12:31;;;;;;;158.35;39.47;;;5.40;99.90;;;;;;4956672;28;20045;-92
2021/12/24 00:15:05;;;;;;;186.50;44.53;;;5.50;99.90;;;;;;4943934;28;20042;-92
2021/12/24 00:17:34;;;;;;;175.68;44.95;;;5.30;99.90;;;;;;4999001;28;20062;-92
2021/12/24 00:23:16;;;;;;;179.18;45.20;;;6.10;99.90;;;;;;4997613;28;20080;-93
2021/12/24 00:36:28;;;;;;;145.60;39.88;;;5.70;99.90;;;;;;5008953;28;20046;-91
2021/12/24 00:38:54;;;;;;;171.07;42.30;;;5.80;99.90;;;;;;4974702;28;20464;-91
2021/12/24 00:41:20;;;;;;;162.50;41.20;;;6.30;99.90;;;;;;4990263;28;20133;-90
2021/12/24 00:43:45;;;;;;;149.57;39.00;;;6.10;99.90;;;;;;4990301;28;20065;-90
2021/12/24 00:46:11;;;;;;;163.43;40.83;;;6.10;99.90;;;;;;4974631;28;20026;-91
2021/12/24 00:48:37;;;;;;;145.38;38.50;;;5.80;99.90;;;;;;4974660;28;20038;-91
2021/12/24 00:56:05;;;;;;;137.05;36.90;;;6.20;99.90;;;;;;5018750;28;20065;-92
2021/12/24 00:58:31;;;;;;;122.85;36.72;;;5.90;99.90;;;;;;5005456;28;20065;-91
2021/12/24 01:00:58;;;;;;;144.85;37.97;;;5.90;99.90;;;;;;4974506;28;20084;-92
2021/12/24 01:03:24;;;;;;;129.15;34.47;;;5.90;99.90;;;;;;5006140;28;20038;-91
2021/12/24 01:05:50;;;;;;;101.13;31.25;;;6.30;99.90;;;;;;5006679;28;20052;-91
2021/12/24 01:08:16;;;;;;;108.85;32.90;;;6.00;99.90;;;;;;4974491;28;20092;-92
2021/12/24 01:10:49;;;;;;;110.47;33.42;;;6.00;99.90;;;;;;5006253;28;20043;-92
2021/12/24 01:13:16;;;;;;;93.57;31.60;;;6.10;99.90;;;;;;5022704;28;20038;-91
2021/12/24 01:15:53;;;;;;;91.55;28.75;;;6.10;99.90;;;;;;4970871;28;20484;-91
2021/12/24 01:20:58;;;;;;;78.13;27.15;;;6.20;99.90;;;;;;5022217;28;20148;-92
2021/12/24 01:28:37;;;;;;;76.25;26.55;;;6.20;99.90;;;;;;5005909;28;20447;-92
2021/12/24 01:39:37;;;;;;;77.82;26.52;;;6.30;99.90;;;;;;4976016;28;20596;-92
2021/12/24 01:44:48;;;;;;;71.35;26.27;;;6.30;99.90;;;;;;4975750;28;20124;-91
2021/12/24 01:47:13;;;;;;;80.35;27.52;;;6.70;99.90;;;;;;5006747;28;20077;-91
2021/12/24 01:49:39;;;;;;;70.28;24.95;;;6.30;99.90;;;;;;4973825;28;20052;-91
2021/12/24 01:52:06;;;;;;;73.82;27.20;;;6.30;99.90;;;;;;5006333;28;20045;-91
2021/12/24 01:54:32;;;;;;;71.85;25.98;;;6.40;99.90;;;;;;5004844;28;20046;-92
2021/12/24 01:56:58;;;;;;;59.88;24.92;;;6.40;99.90;;;;;;4989901;28;20053;-92
2021/12/24 01:59:24;;;;;;;63.78;25.25;;;6.50;99.90;;;;;;4973439;28;20042;-91
2021/12/24 02:01:50;;;;;;;61.30;24.23;;;6.40;99.90;;;;;;4989987;28;20443;-92
2021/12/24 02:04:17;;;;;;;73.03;25.38;;;6.40;99.90;;;;;;5004077;28;20046;-90
2021/12/24 02:06:43;;;;;;;70.68;24.73;;;6.40;99.90;;;;;;4956549;28;20117;-91
2021/12/24 02:09:10;;;;;;;75.53;26.35;;;6.50;99.90;;;;;;5021661;28;20093;-90
2021/12/24 02:11:38;;;;;;;68.80;24.45;;;6.50;99.90;;;;;;4988250;28;20030;-90
2021/12/24 02:14:10;;;;;;;56.45;21.35;;;6.50;99.90;;;;;;4987916;28;20072;-90
2021/12/24 02:30:05;;;;;;;56.70;21.77;;;6.70;99.90;;;;;;5000851;28;20042;-91
2021/12/24 02:32:31;;;;;;;47.60;19.30;;;6.70;99.90;;;;;;4972101;28;20061;-91
2021/12/24 02:34:56;;;;;;;47.85;20.88;;;7.10;99.90;;;;;;4988804;28;20038;-92
2021/12/24 02:37:22;;;;;;;48.47;20.13;;;6.70;99.90;;;;;;4988623;28;20042;-91
2021/12/24 02:39:48;;;;;;;44.85;20.23;;;6.70;99.90;;;;;;5004960;28;20030;-91
2021/12/24 02:42:15;;;;;;;47.50;19.95;;;6.80;99.90;;;;;;5004624;28;20045;-90
2021/12/24 02:44:41;;;;;;;44.92;20.02;;;6.80;99.90;;;;;;5004715;28;20180;-91
2021/12/24 02:47:15;;;;;;;41.83;18.38;;;7.20;99.90;;;;;;4988020;28;20050;-91
2021/12/24 02:55:02;;;;;;;34.58;16.88;;;7.30;99.90;;;;;;5002804;28;20038;-89
2021/12/24 02:57:30;;;;;;;37.22;17.17;;;6.80;99.90;;;;;;5003404;28;20449;-91
2021/12/24 03:00:01;;;;;;;34.28;17.25;;;6.90;99.90;;;;;;5005442;28;20060;-89
2021/12/24 03:02:28;;;;;;;38.55;17.17;;;6.90;99.90;;;;;;5001491;28;20039;-91
2021/12/24 03:04:53;;;;;;;37.70;17.58;;;6.90;99.90;;;;;;4984699;28;20031;-92
2021/12/24 03:07:19;;;;;;;36.00;16.80;;;7.10;99.90;;;;;;4991933;28;20081;-91
2021/12/24 03:09:45;;;;;;;40.63;17.73;;;7.10;99.90;;;;;;5007476;28;20031;-91
2021/12/24 03:12:11;;;;;;;33.20;15.57;;;7.00;99.90;;;;;;4992914;28;20038;-91
2021/12/24 03:14:37;;;;;;;39.03;17.60;;;7.10;99.90;;;;;;4957465;28;20042;-91
2021/12/24 03:17:08;;;;;;;38.05;16.95;;;8.00;99.90;;;;;;5000253;28;20526;-91
2021/12/24 03:19:34;;;;;;;33.20;16.45;;;7.10;99.90;;;;;;5009021;28;20053;-91
2021/12/24 03:22:13;;;;;;;42.50;17.58;;;7.20;99.90;;;;;;4992833;28;20511;-89
2021/12/24 03:24:39;;;;;;;38.92;16.65;;;7.10;99.90;;;;;;4990862;28;20041;-89
2021/12/24 03:27:07;;;;;;;39.00;17.23;;;7.40;99.90;;;;;;4989351;28;20042;-90
2021/12/24 03:29:34;;;;;;;39.95;15.57;;;7.20;99.90;;;;;;5007486;28;20039;-91
2021/12/24 03:32:00;;;;;;;43.03;17.45;;;7.30;99.90;;;;;;5025179;28;20054;-91
2021/12/24 03:34:27;;;;;;;39.83;16.67;;;7.30;99.90;;;;;;5010360;28;20680;-91
2021/12/24 03:36:53;;;;;;;36.58;15.55;;;7.30;99.90;;;;;;5007225;28;20073;-91
2021/12/24 03:39:19;;;;;;;41.78;15.52;;;7.40;99.90;;;;;;4991481;28;20068;-91
2021/12/24 03:41:45;;;;;;;41.00;15.82;;;7.20;99.90;;;;;;5007596;28;20391;-91
2021/12/24 03:44:13;;;;;;;44.78;17.25;;;7.40;99.90;;;;;;5007065;28;20038;-90
2021/12/24 03:47:08;;;;;;;41.90;17.63;;;7.40;99.90;;;;;;4973248;28;20035;-90
2021/12/24 03:54:57;;;;;;;31.27;14.57;;;8.20;99.90;;;;;;4980870;28;20050;-92
2021/12/24 03:57:27;;;;;;;30.90;14.18;;;7.60;99.90;;;;;;4974088;28;20097;-91
2021/12/24 03:59:55;;;;;;;33.03;14.00;;;7.70;99.90;;;;;;5006770;28;20070;-90
2021/12/24 04:02:21;;;;;;;29.30;13.57;;;7.70;99.90;;;;;;4975362;28;20038;-91
2021/12/24 04:04:47;;;;;;;26.92;13.23;;;8.30;99.90;;;;;;5006901;28;20478;-91
2021/12/24 04:07:14;;;;;;;34.95;15.02;;;7.70;99.90;;;;;;5007523;28;20045;-91
2021/12/24 04:09:49;;;;;;;22.27;11.18;;;7.70;99.90;;;;;;5007026;28;20046;-90
2021/12/24 04:12:15;;;;;;;27.42;13.32;;;7.80;99.90;;;;;;4997924;28;20077;-90
2021/12/24 04:14:41;;;;;;;26.17;13.52;;;8.50;99.90;;;;;;5007131;28;20038;-91
2021/12/24 04:17:08;;;;;;;25.88;12.90;;;7.80;99.90;;;;;;5006572;28;20093;-91
2021/12/24 04:25:03;;;;;;;24.70;12.10;;;7.80;99.90;;;;;;5007260;28;20048;-92
2021/12/24 04:27:30;;;;;;;27.15;12.90;;;7.80;99.90;;;;;;4972695;28;20441;-92
2021/12/24 04:30:08;;;;;;;26.63;13.40;;;7.90;99.90;;;;;;5022137;28;20042;-91
2021/12/24 04:51:16;;;;;;;43.08;17.08;;;8.00;99.90;;;;;;5004308;28;20054;-92
2021/12/24 05:04:33;;;;;;;48.08;20.05;;;8.00;99.90;;;;;;5020933;28;20038;-91
2021/12/24 05:07:09;;;;;;;39.50;19.23;;;8.00;99.90;;;;;;4990485;28;20074;-92
2021/12/24 05:09:38;;;;;;;50.05;22.33;;;8.00;99.90;;;;;;5005542;28;20065;-92
2021/12/24 05:12:05;;;;;;;53.38;21.17;;;8.00;99.90;;;;;;5007206;28;20041;-92
2021/12/24 05:14:31;;;;;;;53.17;21.38;;;8.00;99.90;;;;;;4973905;28;20042;-91
2021/12/24 05:17:18;;;;;;;56.03;20.40;;;8.00;99.90;;;;;;4958117;28;20054;-92
2021/12/24 05:22:32;;;;;;;44.10;19.50;;;8.00;99.90;;;;;;4989575;28;20043;-91
2021/12/24 05:25:00;;;;;;;39.10;18.67;;;8.00;99.90;;;;;;5004930;28;20680;-91
2021/12/24 05:27:26;;;;;;;43.83;19.70;;;8.10;99.90;;;;;;4989148;28;20049;-90
2021/12/24 05:29:54;;;;;;;52.13;19.35;;;8.10;99.90;;;;;;4988842;28;20073;-89
2021/12/24 05:32:20;;;;;;;56.42;21.20;;;8.10;99.90;;;;;;5019595;28;20037;-92
2021/12/24 05:34:45;;;;;;;45.90;20.20;;;8.00;99.90;;;;;;4989223;28;20036;-90
2021/12/24 05:37:11;;;;;;;44.03;19.73;;;8.00;99.90;;;;;;5005589;28;20038;-91
2021/12/24 05:39:37;;;;;;;40.17;17.27;;;8.30;99.90;;;;;;4972880;28;20050;-91
2021/12/24 05:42:04;;;;;;;46.28;20.25;;;8.00;99.90;;;;;;4988598;28;20045;-90
2021/12/24 05:44:32;;;;;;;39.00;18.33;;;8.00;99.90;;;;;;4981186;28;20068;-91
2021/12/24 05:46:58;;;;;;;58.55;21.85;;;8.10;99.90;;;;;;5005548;28;20030;-91
2021/12/24 05:49:24;;;;;;;40.42;18.60;;;8.00;99.90;;;;;;5005674;28;20038;-91
2021/12/24 05:51:49;;;;;;;40.72;19.50;;;8.00;99.90;;;;;;5003217;28;20456;-92
2021/12/24 05:54:15;;;;;;;46.53;19.48;;;8.80;99.90;;;;;;5005914;28;20072;-91
2021/12/24 05:56:42;;;;;;;47.25;18.98;;;8.00;99.90;;;;;;5005873;28;20471;-90
2021/12/24 05:59:08;;;;;;;49.72;20.38;;;8.00;99.90;;;;;;5004002;28;20072;-90
2021/12/24 06:01:34;;;;;;;47.10;20.90;;;8.00;99.90;;;;;;4993868;28;20478;-91
2021/12/24 06:03:59;;;;;;;46.13;21.30;;;8.10;99.90;;;;;;4968486;28;20031;-92
2021/12/24 06:06:25;;;;;;;50.17;18.85;;;8.40;99.90;;;;;;5001551;28;20030;-92
2021/12/24 06:08:51;;;;;;;45.80;19.85;;;8.10;99.90;;;;;;4974077;28;20038;-91
2021/12/24 06:11:17;;;;;;;50.88;20.25;;;8.10;99.90;;;;;;5002849;28;20042;-93
2021/12/24 06:13:43;;;;;;;41.60;19.95;;;8.10;99.90;;;;;;4990238;28;20042;-92
2021/12/24 06:16:10;;;;;;;52.08;21.92;;;8.00;99.90;;;;;;4970688;28;20161;-92
2021/12/24 06:18:39;;;;;;;48.42;20.75;;;8.10;99.90;;;;;;4974144;28;20038;-92
2021/12/24 06:21:05;;;;;;;43.17;19.85;;;8.40;99.90;;;;;;4988992;28;20510;-93
2021/12/24 06:23:32;;;;;;;44.78;18.30;;;8.00;99.90;;;;;;5006487;28;20045;-92
2021/12/24 06:26:01;;;;;;;43.75;20.02;;;8.10;99.90;;;;;;4989827;28;20100;-91
2021/12/24 06:28:28;;;;;;;44.33;19.58;;;8.00;99.90;;;;;;4971477;28;20114;-92
2021/12/24 06:30:54;;;;;;;47.08;19.13;;;8.10;99.90;;;;;;5006069;28;20042;-90
2021/12/24 06:33:20;;;;;;;35.92;17.50;;;8.00;99.90;;;;;;4971111;28;20038;-92
2021/12/24 06:35:46;;;;;;;38.78;16.42;;;8.70;99.90;;;;;;5005502;28;20038;-93
2021/12/24 06:38:13;;;;;;;32.15;15.38;;;8.10;99.90;;;;;;4986143;28;20039;-93
2021/12/24 06:40:39;;;;;;;39.47;14.88;;;8.10;99.90;;;;;;4988665;28;20132;-92
2021/12/24 06:43:05;;;;;;;32.88;15.20;;;8.10;99.90;;;;;;4989019;28;20527;-94
2021/12/24 06:45:32;;;;;;;37.00;15.02;;;8.10;99.90;;;;;;4987169;28;20044;-94
2021/12/24 06:48:00;;;;;;;38.97;13.13;;;8.20;99.90;;;;;;5003579;28;20092;-94
2021/12/24 06:50:26;;;;;;;29.20;14.25;;;8.10;99.90;;;;;;4971981;28;20130;-93
2021/12/24 06:52:54;;;;;;;35.42;15.02;;;8.10;99.90;;;;;;5002480;28;20082;-93
2021/12/24 06:55:20;;;;;;;32.60;13.88;;;8.00;99.90;;;;;;4989672;28;20049;-92
2021/12/24 06:57:46;;;;;;;33.38;15.80;;;8.00;99.90;;;;;;4972998;28;20117;-93
2021/12/24 07:00:17;;;;;;;36.05;16.58;;;8.00;99.90;;;;;;5020791;28;20057;-94
2021/12/24 07:02:43;;;;;;;33.55;16.55;;;8.00;99.90;;;;;;5019697;28;20046;-92
2021/12/24 07:05:09;;;;;;;38.05;15.27;;;8.00;99.90;;;;;;4972626;28;20069;-92
2021/12/24 07:07:35;;;;;;;35.30;16.08;;;8.50;99.90;;;;;;4988455;28;20074;-92
2021/12/24 07:10:01;;;;;;;37.63;14.93;;;8.00;99.90;;;;;;5001982;28;20035;-92
2021/12/24 07:12:27;;;;;;;32.58;14.48;;;8.00;99.90;;;;;;4970944;28;20043;-93
2021/12/24 07:14:52;;;;;;;31.90;12.63;;;8.00;99.90;;;;;;4988384;28;20076;-92
2021/12/24 07:17:18;;;;;;;36.85;14.80;;;7.90;99.90;;;;;;4972742;28;20042;-93
2021/12/24 07:19:44;;;;;;;33.85;14.27;;;8.30;99.90;;;;;;4987057;28;20552;-94
2021/12/24 07:22:12;;;;;;;31.90;14.52;;;7.90;99.90;;;;;;4987078;28;20099;-94
2021/12/24 07:24:39;;;;;;;35.78;15.20;;;7.90;99.90;;;;;;4974060;28;20038;-94
2021/12/24 07:27:05;;;;;;;31.75;14.50;;;7.90;99.90;;;;;;5001086;28;20129;-90
2021/12/24 07:29:31;;;;;;;41.22;14.48;;;7.90;99.90;;;;;;4972369;28;20046;-93
2021/12/24 07:31:58;;;;;;;30.00;12.73;;;7.90;99.90;;;;;;5022273;28;20058;-88
2021/12/24 07:34:24;;;;;;;30.25;13.48;;;7.70;99.90;;;;;;5001258;28;20034;-89
2021/12/24 07:36:50;;;;;;;36.42;14.98;;;8.10;99.90;;;;;;5008111;28;20500;-90
2021/12/24 07:39:16;;;;;;;37.83;14.82;;;7.90;99.90;;;;;;5018412;28;20043;-92
2021/12/24 07:41:42;;;;;;;30.08;12.50;;;7.90;99.90;;;;;;5002620;28;20038;-93
2021/12/24 07:44:08;;;;;;;31.83;12.57;;;7.90;99.90;;;;;;5018997;28;20066;-90
2021/12/24 07:46:46;;;;;;;31.75;12.38;;;7.80;99.90;;;;;;5005165;28;20081;-91
2021/12/24 07:52:03;;;;;;;31.08;12.77;;;8.00;99.90;;;;;;4994342;28;20047;-90
2021/12/24 07:54:31;;;;;;;25.33;12.13;;;7.80;99.90;;;;;;4975871;28;20042;-89
2021/12/24 07:56:58;;;;;;;29.23;11.27;;;8.50;99.90;;;;;;5023456;28;20041;-90
2021/12/24 07:59:26;;;;;;;31.77;12.38;;;7.80;99.90;;;;;;4974867;28;20117;-91
2021/12/24 08:01:53;;;;;;;32.25;11.32;;;7.80;99.90;;;;;;4992026;28;20037;-91
2021/12/24 08:04:20;;;;;;;26.67;11.15;;;7.80;99.90;;;;;;5007799;28;20046;-91
2021/12/24 08:06:45;;;;;;;29.02;10.75;;;7.80;99.90;;;;;;5023592;28;20035;-90
2021/12/24 08:09:11;;;;;;;22.13;10.52;;;7.70;99.90;;;;;;5023399;28;20038;-90
2021/12/24 08:11:38;;;;;;;33.30;11.73;;;7.90;99.90;;;;;;5022263;28;20655;-92
2021/12/24 08:14:08;;;;;;;21.35;10.23;;;8.00;99.90;;;;;;5004720;28;20121;-87
2021/12/24 08:16:35;;;;;;;21.75;9.52;;;7.80;99.90;;;;;;5019242;28;20116;-89
2021/12/24 08:19:02;;;;;;;22.55;9.80;;;7.80;99.90;;;;;;5005213;28;20051;-88
2021/12/24 08:21:27;;;;;;;20.63;9.30;;;7.80;99.90;;;;;;5005492;28;20042;-90
2021/12/24 08:23:53;;;;;;;28.33;10.07;;;7.80;99.90;;;;;;4966405;28;20065;-90
2021/12/24 08:26:21;;;;;;;23.30;10.45;;;7.80;99.90;;;;;;4989314;28;20062;-88
2021/12/24 08:28:48;;;;;;;23.88;8.88;;;7.80;99.90;;;;;;5005756;28;20148;-86
2021/12/24 08:31:14;;;;;;;28.15;9.73;;;7.70;99.90;;;;;;5019892;28;20081;-87
2021/12/24 08:33:40;;;;;;;23.38;8.65;;;7.70;99.90;;;;;;5005198;28;20042;-86
2021/12/24 08:36:07;;;;;;;22.90;9.45;;;7.70;99.90;;;;;;4970766;28;20057;-86
2021/12/24 08:38:33;;;;;;;21.17;8.63;;;7.80;99.90;;;;;;4989346;28;20096;-87
2021/12/24 08:40:59;;;;;;;22.45;8.95;;;8.00;99.90;;;;;;4989378;28;20504;-86
2021/12/24 08:43:25;;;;;;;17.23;8.00;;;7.80;99.90;;;;;;4972864;28;20065;-89
2021/12/24 08:45:51;;;;;;;21.05;8.75;;;7.80;99.90;;;;;;4973712;28;20454;-89
2021/12/24 08:48:17;;;;;;;23.70;8.52;;;7.80;99.90;;;;;;4954939;28;20049;-87
2021/12/24 08:50:44;;;;;;;27.38;10.60;;;7.70;99.90;;;;;;4977055;28;20042;-93
2021/12/24 08:53:10;;;;;;;28.15;9.77;;;7.70;99.90;;;;;;5005550;28;20038;-91
2021/12/24 08:55:36;;;;;;;29.33;10.20;;;8.10;99.90;;;;;;5020465;28;20380;-93
2021/12/24 08:58:03;;;;;;;26.65;10.20;;;8.60;99.90;;;;;;4971145;28;20054;-94
2021/12/24 09:00:29;;;;;;;28.67;10.95;;;7.70;99.90;;;;;;4990924;28;20045;-92
2021/12/24 09:02:56;;;;;;;27.85;10.88;;;7.70;99.90;;;;;;5021775;28;20038;-93
2021/12/24 09:05:22;;;;;;;29.98;9.75;;;7.70;99.90;;;;;;4974421;28;20046;-94
2021/12/24 09:07:48;;;;;;;26.42;10.15;;;7.80;99.90;;;;;;5007389;28;20042;-93
2021/12/24 09:10:14;;;;;;;27.15;10.88;;;7.80;99.90;;;;;;4976918;28;20415;-92
2021/12/24 09:12:43;;;;;;;24.13;9.90;;;7.80;99.90;;;;;;4972954;28;20042;-93
2021/12/24 09:15:13;;;;;;;26.00;9.43;;;8.10;99.90;;;;;;4970840;28;20468;-91
2021/12/24 09:17:43;;;;;;;31.23;10.40;;;7.80;99.90;;;;;;5005972;28;20052;-93
2021/12/24 09:20:13;;;;;;;30.50;10.43;;;7.80;99.90;;;;;;4990346;28;20052;-88
2021/12/24 09:22:40;;;;;;;24.95;10.38;;;7.80;99.90;;;;;;4972797;28;20030;-90
2021/12/24 09:25:06;;;;;;;31.27;9.45;;;7.80;99.90;;;;;;4988787;28;20069;-86
2021/12/24 09:27:32;;;;;;;23.98;9.15;;;7.90;99.90;;;;;;4988680;28;20125;-85
2021/12/24 09:29:58;;;;;;;22.67;8.90;;;7.90;99.90;;;;;;5021297;28;20126;-84
2021/12/24 09:32:25;;;;;;;19.65;8.75;;;7.90;99.90;;;;;;4939651;28;20129;-85
2021/12/24 09:34:51;;;;;;;25.33;8.18;;;7.90;99.90;;;;;;5004238;28;20092;-85
2021/12/24 09:37:17;;;;;;;20.27;8.55;;;7.90;99.90;;;;;;5004980;28;20126;-89
2021/12/24 09:39:43;;;;;;;21.85;8.25;;;7.90;99.90;;;;;;4972199;28;20114;-87
2021/12/24 09:42:09;;;;;;;25.52;8.68;;;7.90;99.90;;;;;;4972298;28;20479;-90
2021/12/24 09:44:36;;;;;;;25.77;8.50;;;8.30;99.90;;;;;;4972363;28;20037;-90
2021/12/24 09:47:02;;;;;;;22.92;9.13;;;7.80;99.90;;;;;;4956249;28;20039;-89
2021/12/24 09:49:28;;;;;;;16.88;8.05;;;7.80;99.90;;;;;;5020426;28;20050;-91
2021/12/24 09:51:53;;;;;;;23.40;8.77;;;8.50;99.90;;;;;;5003271;28;20089;-89
2021/12/24 09:54:22;;;;;;;28.77;8.95;;;8.50;99.90;;;;;;5004818;28;20073;-87
2021/12/24 09:56:49;;;;;;;24.48;9.38;;;7.80;99.90;;;;;;4988104;28;20376;-89
2021/12/24 09:59:15;;;;;;;31.42;8.73;;;7.90;99.90;;;;;;4971467;28;20035;-88
2021/12/24 10:01:50;;;;;;;35.50;9.13;;;7.80;99.90;;;;;;5002836;28;20499;-87
2021/12/24 10:04:19;;;;;;;28.85;9.80;;;7.80;99.90;;;;;;4970025;28;20078;-88
2021/12/24 10:06:59;;;;;;;26.58;8.90;;;8.20;99.90;;;;;;5004200;28;20081;-88
2021/12/24 10:09:30;;;;;;;30.25;9.10;;;7.90;99.90;;;;;;4981338;28;20053;-85
2021/12/24 10:11:58;;;;;;;27.95;8.68;;;7.80;99.90;;;;;;4986713;28;20126;-85
2021/12/24 10:14:32;;;;;;;31.95;8.52;;;7.80;99.90;;;;;;5009383;28;20542;-87
2021/12/24 10:16:58;;;;;;;26.25;9.40;;;7.80;99.90;;;;;;5005788;28;20062;-87
2021/12/24 10:19:24;;;;;;;32.70;9.27;;;7.80;99.90;;;;;;5005509;28;20061;-86
2021/12/24 10:21:59;;;;;;;28.02;10.07;;;8.20;99.90;;;;;;4989232;28;20491;-87
2021/12/24 10:24:26;;;;;;;31.77;9.45;;;7.80;99.90;;;;;;4989272;28;20034;-88
2021/12/24 10:26:55;;;;;;;26.75;9.73;;;7.80;99.90;;;;;;4973225;28;20097;-86
2021/12/24 10:29:37;;;;;;;22.35;9.15;;;7.80;99.90;;;;;;4987222;28;20049;-87
2021/12/24 10:32:15;;;;;;;19.57;8.27;;;7.80;99.90;;;;;;4981383;28;20034;-87
2021/12/24 10:34:42;;;;;;;22.40;8.25;;;7.90;99.90;;;;;;5020114;28;20053;-90
2021/12/24 10:37:14;;;;;;;25.52;8.63;;;7.90;99.90;;;;;;5004655;28;20085;-90
2021/12/24 10:39:52;;;;;;;25.67;8.90;;;7.90;99.90;;;;;;4986946;28;20093;-87
2021/12/24 10:42:32;;;;;;;23.75;8.45;;;7.90;99.90;;;;;;4969349;28;20080;-89
2021/12/24 10:45:02;;;;;;;20.73;8.25;;;7.90;99.90;;;;;;4983937;28;20034;-89
2021/12/24 10:47:32;;;;;;;25.23;9.07;;;7.90;99.90;;;;;;5003632;28;20030;-92
2021/12/24 10:52:59;;;;;;;26.63;8.43;;;7.90;99.90;;;;;;5008857;28;20045;-90
2021/12/24 10:55:31;;;;;;;30.83;8.52;;;7.90;99.90;;;;;;5004131;28;20034;-90
2021/12/24 10:57:59;;;;;;;29.85;9.07;;;7.90;99.90;;;;;;4972444;28;20045;-88
2021/12/24 11:00:25;;;;;;;26.60;8.50;;;7.90;99.90;;;;;;5004935;28;20046;-89
2021/12/24 11:02:57;;;;;;;29.98;9.40;;;7.90;99.90;;;;;;4989992;28;20117;-92
2021/12/24 11:05:44;;;;;;;31.58;9.32;;;7.90;99.90;;;;;;4971761;28;20035;-91
2021/12/24 11:08:20;;;;;;;21.85;8.35;;;7.90;99.90;;;;;;5005261;28;20043;-87
2021/12/24 11:10:48;;;;;;;29.85;10.32;;;7.80;99.90;;;;;;5003909;28;20128;-85
2021/12/24 11:13:21;;;;;;;23.17;9.63;;;7.80;99.90;;;;;;5002704;28;20042;-86
2021/12/24 11:15:52;;;;;;;26.75;9.00;;;7.80;99.90;;;;;;4987446;28;20105;-89
2021/12/24 11:18:27;;;;;;;36.72;9.35;;;7.80;99.90;;;;;;5000567;28;20045;-89
2021/12/24 11:21:18;;;;;;;24.92;10.00;;;7.80;99.90;;;;;;4977161;28;20037;-90
2021/12/24 11:23:44;;;;;;;8.45;3.55;;;7.80;99.90;;;;;;4972666;28;20041;-89
2021/12/24 11:26:25;;;;;;;3.10;2.10;;;7.60;99.90;;;;;;4973361;28;20316;-86
2021/12/24 11:28:51;;;;;;;2.58;2.15;;;7.30;99.90;;;;;;4976531;28;20332;-89
2021/12/24 11:31:25;;;;;;;2.92;2.10;;;7.00;99.90;;;;;;5009126;28;20186;-89
2021/12/24 11:33:52;;;;;;;3.25;2.60;;;6.70;99.90;;;;;;4992839;28;20624;-90
2021/12/24 11:36:21;;;;;;;2.67;2.42;;;6.40;99.90;;;;;;5007726;28;20051;-89
2021/12/24 11:38:52;;;;;;;3.30;2.55;;;6.50;99.90;;;;;;4976294;28;20125;-90
2021/12/24 11:41:24;;;;;;;2.73;2.23;;;6.20;99.90;;;;;;4976579;28;20038;-89
2021/12/24 11:43:51;;;;;;;4.00;2.60;;;6.10;99.90;;;;;;4992600;28;20031;-90
2021/12/24 11:46:19;;;;;;;4.82;2.55;;;5.90;99.90;;;;;;5010148;28;20048;-91
2021/12/24 11:48:48;;;;;;;3.08;2.45;;;6.00;99.90;;;;;;4989846;28;20627;-89
2021/12/24 11:51:28;;;;;;;2.67;2.33;;;5.90;99.90;;;;;;4991145;28;20499;-93
2021/12/24 11:54:00;;;;;;;3.83;2.50;;;5.70;99.90;;;;;;5027524;28;20065;-93
2021/12/24 11:56:26;;;;;;;4.18;2.90;;;5.70;99.90;;;;;;4995437;28;20046;-95
2021/12/24 11:58:54;;;;;;;3.10;2.10;;;5.70;99.90;;;;;;4974569;28;20046;-91
2021/12/24 12:01:22;;;;;;;3.50;2.70;;;5.70;99.90;;;;;;5027344;28;20636;-94
2021/12/24 12:03:54;;;;;;;3.05;2.38;;;5.70;99.90;;;;;;4992049;28;20089;-88
2021/12/24 12:06:22;;;;;;;2.83;2.45;;;5.60;99.90;;;;;;4975862;28;20046;-89
2021/12/24 12:08:50;;;;;;;2.90;2.30;;;6.00;99.90;;;;;;5023390;28;20041;-89
2021/12/24 12:11:20;;;;;;;4.03;2.85;;;5.60;99.90;;;;;;4991264;28;20213;-93
2021/12/24 12:13:53;;;;;;;4.53;3.13;;;5.60;99.90;;;;;;4975447;28;20034;-91
2021/12/24 12:16:20;;;;;;;;;;;5.70;99.90;;;;;;5019565;28;20045;-92
2021/12/24 12:19:04;;;;;;;4.03;2.88;;;6.00;99.90;;;;;;5008816;28;19922;-93
2021/12/24 12:21:42;;;;;;;4.60;3.00;;;5.50;99.90;;;;;;4991331;28;20038;-91
2021/12/24 12:26:41;;;;;;;3.38;2.88;;;5.60;99.90;;;;;;4982453;28;20050;-91
2021/12/24 12:29:24;;;;;;;3.50;2.85;;;5.60;99.90;;;;;;4979613;28;20100;-91
2021/12/24 12:32:00;;;;;;;3.50;3.10;;;5.70;99.90;;;;;;4988002;28;20046;-90
2021/12/24 12:34:38;;;;;;;7.88;7.10;;;5.60;99.90;;;;;;5011421;28;20521;-91
2021/12/24 12:37:11;;;;;;;4.80;3.20;;;5.60;99.90;;;;;;4989558;28;20038;-92
2021/12/24 12:39:38;;;;;;;3.85;3.10;;;5.50;99.90;;;;;;5004517;28;20123;-90
2021/12/24 12:42:04;;;;;;;3.85;2.92;;;5.40;99.90;;;;;;5023499;28;20370;-90
2021/12/24 12:44:32;;;;;;;6.43;3.25;;;5.40;99.90;;;;;;4990667;28;20113;-88
2021/12/24 12:47:17;;;;;;;3.65;2.95;;;5.40;99.90;;;;;;4974810;28;20062;-90
2021/12/24 12:49:43;;;;;;;4.20;3.40;;;5.40;99.90;;;;;;5003825;28;20507;-91
2021/12/24 12:52:20;;;;;;;3.42;2.85;;;5.40;99.90;;;;;;5023075;28;20042;-91
2021/12/24 12:54:52;;;;;;;4.00;3.05;;;5.80;99.90;;;;;;5005509;28;20044;-91
2021/12/24 12:57:22;;;;;;;3.17;2.60;;;6.20;99.90;;;;;;4974588;28;20112;-90
2021/12/24 13:00:07;;;;;;;5.10;3.25;;;5.40;99.90;;;;;;4988861;28;20027;-93
2021/12/24 13:03:06;;;;;;;3.78;3.08;;;5.40;99.90;;;;;;4997505;28;20038;-92
2021/12/24 13:05:42;;;;;;;5.75;3.58;;;5.40;99.90;;;;;;4975183;28;20030;-92
2021/12/24 13:08:22;;;;;;;6.07;3.85;;;5.40;99.90;;;;;;4973766;28;20054;-92
2021/12/24 13:11:06;;;;;;;4.82;3.70;;;5.40;99.90;;;;;;5004780;28;20035;-92
2021/12/24 13:13:41;;;;;;;4.32;3.53;;;5.40;99.90;;;;;;4974233;28;20039;-92
2021/12/24 13:16:16;;;;;;;6.32;3.90;;;5.40;99.90;;;;;;4976949;28;20238;-92
2021/12/24 13:18:46;;;;;;;5.63;4.10;;;5.40;99.90;;;;;;4992349;28;20407;-93
2021/12/24 13:23:56;;;;;;;4.55;3.80;;;5.30;99.90;;;;;;4976849;28;20070;-90
2021/12/24 13:26:22;;;;;;;5.35;4.28;;;5.30;99.90;;;;;;4982206;28;20062;-91
2021/12/24 13:29:06;;;;;;;5.43;4.30;;;5.30;99.90;;;;;;4972544;28;20039;-91
2021/12/24 13:31:32;;;;;;;7.10;4.38;;;5.30;99.90;;;;;;5005671;28;20041;-91
2021/12/24 13:33:59;;;;;;;5.57;4.63;;;5.50;99.90;;;;;;4973149;28;20039;-92
2021/12/24 13:36:28;;;;;;;6.75;4.40;;;5.80;99.90;;;;;;4974468;28;20073;-92
2021/12/24 13:39:07;;;;;;;7.60;5.22;;;5.30;99.90;;;;;;5000325;28;20074;-93
2021/12/24 13:41:32;;;;;;;7.18;4.90;;;6.00;99.90;;;;;;5023733;28;20153;-91
2021/12/24 13:43:58;;;;;;;6.50;4.93;;;5.30;99.90;;;;;;4958745;28;20109;-93
2021/12/24 13:46:26;;;;;;;7.78;4.95;;;5.30;99.90;;;;;;4974792;28;20545;-91
2021/12/24 13:49:17;;;;;;;7.82;4.90;;;6.20;99.90;;;;;;4971458;28;20043;-91
2021/12/24 13:54:35;;;;;;;6.43;5.28;;;5.60;99.90;;;;;;5006501;28;20097;-92
2021/12/24 13:57:04;;;;;;;7.53;5.28;;;5.30;99.90;;;;;;4974209;28;20044;-92
2021/12/24 13:59:31;;;;;;;6.45;5.18;;;5.30;99.90;;;;;;4970739;28;20045;-92
2021/12/24 14:01:57;;;;;;;8.00;5.15;;;5.30;99.90;;;;;;4974615;28;20682;-89
2021/12/24 14:04:23;;;;;;;9.52;5.65;;;5.60;99.90;;;;;;5005639;28;20381;-93
2021/12/24 14:06:55;;;;;;;8.48;5.72;;;6.50;99.90;;;;;;4981214;28;20520;-91
2021/12/24 14:09:31;;;;;;;8.05;5.90;;;5.90;99.90;;;;;;5018741;28;20389;-91
2021/12/24 14:11:59;;;;;;;8.35;5.60;;;5.40;99.90;;;;;;4989594;28;20069;-93
2021/12/24 14:14:39;;;;;;;8.90;6.57;;;5.40;99.90;;;;;;4989008;28;20066;-91
2021/12/24 14:22:20;;;;;;;12.10;8.40;;;5.40;99.90;;;;;;4989850;28;20524;-92
2021/12/24 14:25:08;;;;;;;9.77;6.82;;;5.30;99.90;;;;;;4973527;28;20049;-91
2021/12/24 14:27:35;;;;;;;11.85;7.30;;;5.40;99.90;;;;;;5023058;28;20038;-91
2021/12/24 14:30:07;;;;;;;9.20;6.43;;;6.20;99.90;;;;;;4990258;28;20112;-91
2021/12/24 14:32:45;;;;;;;8.95;6.60;;;5.40;99.90;;;;;;5018518;28;20068;-90
2021/12/24 14:35:25;;;;;;;7.28;5.60;;;5.50;99.90;;;;;;4969378;28;20130;-91
2021/12/24 14:38:06;;;;;;;8.85;5.85;;;5.30;99.90;;;;;;4977977;28;20053;-92
2021/12/24 14:40:33;;;;;;;8.65;5.90;;;5.30;99.90;;;;;;4973478;28;20041;-89
2021/12/24 14:43:08;;;;;;;8.32;6.13;;;5.30;99.90;;;;;;5019299;28;20042;-91
2021/12/24 14:45:37;;;;;;;10.65;6.40;;;5.30;99.90;;;;;;4970492;28;20652;-90
2021/12/24 14:48:16;;;;;;;9.48;6.30;;;5.90;99.90;;;;;;4999695;28;20034;-91
2021/12/24 14:50:49;;;;;;;8.20;6.05;;;5.30;99.90;;;;;;4967430;28;20042;-93